Dublin, PA (18917)

12:57 PM EDT on August 20, 2014 (GMT -0400)
Bedminster, PA | Change Station
CLOSE
Current Station
Personal Weather Station
Location: Perkasie, PA
Elevation: 460 ft
Nearby Weather Stations

Elev 460 ft 40.42 °N, 75.19 °W | Updated 8 minutes ago

Scattered Clouds
Scattered Clouds
79.6 °F
Feels Like 81 °F
N
3.0
Wind Variable Wind from WSW
Gusts 3.0 mph

Today
High -- | Low -- °F
--% Chance of Precip.
Yesterday
High -- | Low -- °F
Precip. -- in
6:16 AM 7:51 PM
Waning Crescent, 20% visible
Pressure 30.00 in
Visibility 10.0 miles
Clouds Few 4000 ft
Scattered Clouds 5500 ft
Heat Index 81 °F
Dew Point 62 °F
Humidity 54%
Rainfall 0.00 in
Snow Depth Not available.
UV 8 out of 12
Pollen 9.00 out of 12
Air Quality Not available.
Flu Activity Not available.
METAR KDYL 201554Z AUTO VRB06KT 10SM FEW040 SCT055 25/17 A3001 RMK AO2 SLP158 T02500167

More Conditions Fewer Conditions

Pressure 30.00 in
Visibility 10.0 miles
Clouds Few 4000 ft
Scattered Clouds 5500 ft
Heat Index 81 °F
Dew Point 62 °F
Humidity 54%
Rainfall 0.00 in
Snow Depth Not available.
UV 8 out of 12
Pollen 9.00 out of 12
Air Quality Not available.
Flu Activity Not available.
METAR KDYL 201554Z AUTO VRB06KT 10SM FEW040 SCT055 25/17 A3001 RMK AO2 SLP158 T02500167

More Conditions Fewer Conditions

10-Day Weather Forecast

Almanac

Astronomy

Aug. 20, 2014 Rise Set
Actual Time 6:16 AM EDT 7:51 PM EDT
Civil Twilight 5:47 AM EDT 8:19 PM EDT
Nautical Twilight 5:12 AM EDT 8:54 PM EDT
Astronomical Twilight 4:36 AM EDT 9:31 PM EDT
Moon 1:54 AM EDT 4:34 PM EDT
Length of Visible Light 14h 32m
Length of Day
13h 34m
Tomorrow will be 2m 26s shorter.
Waning Crescent, 20% of the Moon is Illuminated
Today
Waning Crescent
Aug 25
New
Sep 2
First Quarter
Sep 8
Full
Sep 15
Last Quarter

Today's Extremes

State Highs State Lows

Community

WunderPhotos

Upload Photos

1,745,691 photos uploaded!

WunderBlogs® & News

Nearby

Snow Depth

Station Depth Elevation
No new snow has been reported.

Earthquake Activity

City Distance Mag. Time & Date
No recent earthquake activity has been reported nearby.
Minimum magnitude displayed is 2.5.

Coastal Water Temperatures

Place Temperature
No Stations Reporting

Nearby Weather Stations